createdAt,value
2022-08-25T00:00:45.902Z,18.46
2022-08-25T00:05:49.089Z,18.42
2022-08-25T00:10:59.835Z,18.38
2022-08-25T00:16:06.836Z,18.33
2022-08-25T00:21:09.905Z,18.29
2022-08-25T00:26:15.832Z,18.27
2022-08-25T00:31:23.443Z,18.25
2022-08-25T00:36:41.489Z,18.28
2022-08-25T00:41:44.367Z,18.31
2022-08-25T00:46:55.430Z,18.33
2022-08-25T00:52:18.854Z,18.37
2022-08-25T00:57:34.550Z,18.37
2022-08-25T01:02:38.827Z,18.42
2022-08-25T01:07:43.525Z,18.44
2022-08-25T01:12:50.116Z,18.46
2022-08-25T01:17:57.720Z,18.44
2022-08-25T01:23:03.117Z,18.46
2022-08-25T01:28:07.271Z,18.45
2022-08-25T01:33:11.885Z,18.45
2022-08-25T01:38:15.520Z,18.35
2022-08-25T01:43:39.326Z,18.32
2022-08-25T01:48:42.173Z,18.27
2022-08-25T01:53:45.215Z,18.24
2022-08-25T01:58:50.062Z,18.22
2022-08-25T02:03:56.052Z,18.16
2022-08-25T02:09:07.244Z,18.12
2022-08-25T02:14:12.030Z,18.01
2022-08-25T02:19:17.278Z,17.98
2022-08-25T02:24:20.950Z,17.95
2022-08-25T02:29:24.011Z,17.91
2022-08-25T02:34:27.599Z,17.80
2022-08-25T02:39:30.518Z,17.81
2022-08-25T02:44:33.685Z,17.80
2022-08-25T02:49:36.522Z,17.83
2022-08-25T02:54:39.387Z,17.84
2022-08-25T02:59:42.319Z,17.85
2022-08-25T03:04:45.412Z,17.85
2022-08-25T03:09:48.783Z,17.83
2022-08-25T03:14:51.755Z,17.83
2022-08-25T03:19:54.627Z,17.79
2022-08-25T03:25:22.149Z,17.75
2022-08-25T03:30:27.994Z,17.74
2022-08-25T03:35:30.927Z,17.73
2022-08-25T03:40:34.288Z,17.73
2022-08-25T03:45:41.811Z,17.70
2022-08-25T03:50:52.152Z,17.66
2022-08-25T03:55:55.016Z,17.70
2022-08-25T04:01:00.558Z,17.66
2022-08-25T04:06:06.654Z,17.68
2022-08-25T04:11:22.549Z,17.66
2022-08-25T04:16:31.326Z,17.65
2022-08-25T04:21:34.917Z,17.69
2022-08-25T04:26:42.705Z,17.74
2022-08-25T04:31:48.708Z,17.78
2022-08-25T04:36:52.602Z,17.88
2022-08-25T04:41:55.677Z,17.95
2022-08-25T04:46:59.979Z,18.05
2022-08-25T04:52:03.348Z,18.12
2022-08-25T04:57:07.224Z,18.22
2022-08-25T05:02:10.403Z,18.34
2022-08-25T05:07:13.442Z,18.47
2022-08-25T05:12:16.678Z,18.60
2022-08-25T05:17:19.618Z,18.74
2022-08-25T05:22:25.427Z,18.84
2022-08-25T05:27:28.565Z,18.97
2022-08-25T05:32:32.036Z,19.06
2022-08-25T05:37:35.304Z,19.21
2022-08-25T05:42:38.796Z,19.35
2022-08-25T05:47:41.598Z,19.46
2022-08-25T05:52:45.680Z,19.59
2022-08-25T05:57:49.034Z,19.71
2022-08-25T06:02:52.054Z,19.86
2022-08-25T06:07:55.643Z,19.99
2022-08-25T06:12:58.624Z,20.15
2022-08-25T06:18:03.468Z,20.27
2022-08-25T06:23:06.578Z,20.49
2022-08-25T06:28:09.551Z,20.69
2022-08-25T06:33:12.463Z,20.87
2022-08-25T06:38:15.303Z,21.07
2022-08-25T06:43:20.253Z,21.26
2022-08-25T06:48:24.023Z,21.48
2022-08-25T06:53:26.937Z,21.64
2022-08-25T06:58:30.218Z,21.85
2022-08-25T07:03:33.101Z,21.99
2022-08-25T07:08:40.346Z,22.12
2022-08-25T07:13:44.163Z,22.28
2022-08-25T07:18:48.675Z,22.40
2022-08-25T07:23:52.329Z,22.53
2022-08-25T07:28:56.335Z,22.70
2022-08-25T07:34:18.165Z,22.88
2022-08-25T07:39:22.295Z,23.08
2022-08-25T07:44:28.076Z,23.25
2022-08-25T07:49:35.997Z,23.44
2022-08-25T07:54:42.832Z,23.76
2022-08-25T07:59:50.319Z,23.94
2022-08-25T08:04:54.284Z,23.99
2022-08-25T08:10:27.926Z,24.10
2022-08-25T08:15:21.472Z,24.23
2022-08-25T08:20:25.831Z,24.34
2022-08-25T08:25:28.781Z,24.47
2022-08-25T08:30:32.195Z,24.57
2022-08-25T08:35:35.166Z,24.65
2022-08-25T08:41:23.225Z,24.74
2022-08-25T08:46:50.631Z,24.85
2022-08-25T08:52:00.627Z,24.97
2022-08-25T08:57:18.870Z,25.08
2022-08-25T09:03:00.462Z,25.25
2022-08-25T09:08:10.498Z,25.45
2022-08-25T09:13:35.836Z,25.56
2022-08-25T09:18:50.908Z,25.63
2022-08-25T09:24:28.588Z,25.74
2022-08-25T09:30:11.619Z,25.84
2022-08-25T09:35:26.569Z,25.93
2022-08-25T09:40:35.717Z,26.02
2022-08-25T09:45:45.143Z,26.18
2022-08-25T09:50:54.492Z,26.33
2022-08-25T09:56:06.020Z,26.44
2022-08-25T10:01:15.920Z,26.60
2022-08-25T10:06:19.071Z,26.71
2022-08-25T10:11:52.709Z,26.81
2022-08-25T10:17:29.605Z,26.93
2022-08-25T10:22:33.046Z,27.05
2022-08-25T10:27:51.025Z,27.19
2022-08-25T10:33:03.681Z,27.30
2022-08-25T10:38:47.778Z,27.53
2022-08-25T10:44:47.827Z,27.76
2022-08-25T10:50:01.533Z,27.85
2022-08-25T10:55:45.345Z,27.94
2022-08-25T11:01:02.155Z,28.01
2022-08-25T11:06:14.654Z,28.07
2022-08-25T11:11:47.144Z,28.26
2022-08-25T11:17:00.602Z,28.43
2022-08-25T11:22:38.676Z,28.66
2022-08-25T11:27:55.418Z,28.80
2022-08-25T11:32:58.537Z,28.90
2022-08-25T11:38:35.624Z,28.93
2022-08-25T11:44:53.199Z,29.01
2022-08-25T11:50:23.641Z,29.02
2022-08-25T11:55:38.881Z,29.17
2022-08-25T12:00:46.080Z,29.34
2022-08-25T12:23:34.779Z,30.47
2022-08-25T12:29:07.563Z,30.57
2022-08-25T12:34:48.550Z,30.79
2022-08-25T12:39:51.598Z,30.76
2022-08-25T12:45:20.765Z,30.87
2022-08-25T12:50:32.140Z,30.92
2022-08-25T12:55:37.524Z,31.06
2022-08-25T13:00:52.490Z,31.02
2022-08-25T13:06:20.435Z,30.91
2022-08-25T13:11:43.352Z,30.87
2022-08-25T13:17:00.371Z,30.75
2022-08-25T13:22:18.601Z,30.58
2022-08-25T13:27:28.328Z,30.48
2022-08-25T13:32:39.684Z,30.47
2022-08-25T13:37:43.831Z,30.43
2022-08-25T13:42:56.148Z,30.31
2022-08-25T13:48:00.425Z,30.20
2022-08-25T13:53:26.467Z,30.11
2022-08-25T13:58:39.282Z,30.09
2022-08-25T14:03:48.815Z,30.07
2022-08-25T14:08:58.461Z,30.02
2022-08-25T14:14:03.968Z,30.04
2022-08-25T14:19:20.177Z,30.06
2022-08-25T14:24:24.312Z,30.13
2022-08-25T14:29:28.732Z,30.18
2022-08-25T14:34:37.749Z,30.26
2022-08-25T14:39:44.081Z,30.33
2022-08-25T14:44:47.607Z,30.50
2022-08-25T14:49:50.565Z,30.63
2022-08-25T14:54:54.389Z,30.79
2022-08-25T14:59:58.621Z,30.90
2022-08-25T15:05:06.477Z,30.91
2022-08-25T15:10:13.561Z,31.08
2022-08-25T15:15:17.532Z,31.19
2022-08-25T15:20:23.559Z,31.14
2022-08-25T15:25:27.969Z,31.09
2022-08-25T15:30:31.384Z,31.16
2022-08-25T15:35:35.442Z,31.24
2022-08-25T15:40:39.807Z,31.22
2022-08-25T15:45:43.035Z,31.12
2022-08-25T15:50:47.378Z,31.02
2022-08-25T15:55:50.495Z,30.79
2022-08-25T16:00:56.948Z,30.65
2022-08-25T16:06:04.642Z,30.50
2022-08-25T16:11:18.867Z,30.26
2022-08-25T16:16:24.948Z,29.95
2022-08-25T16:21:37.123Z,29.63
2022-08-25T16:26:48.584Z,29.36
2022-08-25T16:31:53.302Z,29.10
2022-08-25T16:36:58.491Z,28.85
2022-08-25T16:42:01.885Z,28.62
2022-08-25T16:47:05.298Z,28.38
2022-08-25T16:52:30.437Z,28.18
2022-08-25T16:57:33.764Z,27.93
2022-08-25T17:02:37.442Z,27.72
2022-08-25T17:07:41.568Z,27.53
2022-08-25T17:12:44.351Z,27.33
2022-08-25T17:17:47.259Z,27.20
2022-08-25T17:22:50.971Z,27.03
2022-08-25T17:27:53.707Z,26.86
2022-08-25T17:32:56.657Z,26.75
2022-08-25T17:37:59.840Z,26.61
2022-08-25T17:43:02.992Z,26.45
2022-08-25T17:48:07.419Z,26.30
2022-08-25T17:53:13.364Z,26.16
2022-08-25T17:58:17.444Z,26.00
2022-08-25T18:03:20.458Z,25.82
2022-08-25T18:08:32.034Z,25.60
2022-08-25T18:13:39.110Z,25.42
2022-08-25T18:18:42.325Z,25.24
2022-08-25T18:23:45.802Z,25.11
2022-08-25T18:28:49.606Z,24.99
2022-08-25T18:33:53.010Z,24.94
2022-08-25T18:39:14.593Z,24.91
2022-08-25T18:44:19.907Z,24.87
2022-08-25T18:49:22.848Z,24.86
2022-08-25T18:54:29.562Z,24.78
2022-08-25T18:59:33.231Z,24.72
2022-08-25T19:04:37.102Z,24.66
2022-08-25T19:09:40.495Z,24.58
2022-08-25T19:14:43.335Z,24.53
2022-08-25T19:19:46.184Z,24.49
2022-08-25T19:24:49.332Z,24.43
2022-08-25T19:29:53.033Z,24.35
2022-08-25T19:34:57.008Z,24.30
2022-08-25T19:39:59.910Z,24.23
2022-08-25T19:45:09.203Z,24.21
2022-08-25T19:50:14.985Z,24.16
2022-08-25T19:55:21.071Z,24.13
2022-08-25T20:00:30.024Z,24.07
2022-08-25T20:05:33.856Z,24.00
2022-08-25T20:10:41.825Z,23.91
2022-08-25T20:15:45.131Z,23.79
2022-08-25T20:20:48.109Z,23.68
2022-08-25T20:25:51.667Z,23.58
2022-08-25T20:30:54.861Z,23.47
2022-08-25T20:35:58.330Z,23.35
2022-08-25T20:41:01.579Z,23.28
2022-08-25T20:46:09.284Z,23.18
2022-08-25T20:51:13.241Z,23.05
2022-08-25T20:56:20.332Z,22.98
2022-08-25T21:01:37.855Z,22.90
2022-08-25T21:06:44.746Z,22.84
2022-08-25T21:11:48.540Z,22.76
2022-08-25T21:16:54.310Z,22.67
2022-08-25T21:21:59.546Z,22.61
2022-08-25T21:27:04.621Z,22.57
2022-08-25T21:32:07.455Z,22.59
2022-08-25T21:37:13.444Z,22.66
2022-08-25T21:42:16.411Z,22.71
2022-08-25T21:47:21.173Z,22.73
2022-08-25T21:52:25.273Z,22.73
2022-08-25T21:57:28.586Z,22.64
2022-08-25T22:02:31.421Z,22.53
2022-08-25T22:07:41.619Z,22.46
2022-08-25T22:12:48.253Z,22.36
2022-08-25T22:17:50.997Z,22.29
2022-08-25T22:22:53.801Z,22.20
2022-08-25T22:27:57.217Z,22.13
2022-08-25T22:33:00.076Z,22.07
2022-08-25T22:38:04.787Z,22.02
2022-08-25T22:43:09.310Z,21.93
2022-08-25T22:48:13.850Z,21.85
2022-08-25T22:53:16.686Z,21.79
2022-08-25T22:58:19.388Z,21.77
2022-08-25T23:03:22.351Z,21.74
2022-08-25T23:08:38.880Z,21.70
2022-08-25T23:13:44.313Z,21.62
2022-08-25T23:18:47.332Z,21.58
2022-08-25T23:23:50.203Z,21.51
2022-08-25T23:28:53.588Z,21.44
2022-08-25T23:33:58.640Z,21.36
2022-08-25T23:39:02.187Z,21.29
2022-08-25T23:44:05.813Z,21.24
2022-08-25T23:49:09.396Z,21.20
2022-08-25T23:54:13.461Z,21.13
2022-08-25T23:59:16.591Z,21.06
